Time;durP1;ratioP1;P1;durP2;ratioP2;P2;SDS_P1;SDS_P2;PMS_P1;PMS_P2;Temp;Humidity;BMP_temperature;BMP_pressure;BME280_temperature;BME280_humidity;BME280_pressure;Samples;Min_cycle;Max_cycle;Signal;HPM_P1;HPM_P2
2021/06/20 00:00:40;;;;;;;;;;;25.50;99.90;;;;;;5072327;28;20330;-70
2021/06/20 00:03:07;;;;;;;;;;;25.50;99.90;;;;;;5072143;28;19987;-70
2021/06/20 00:05:37;;;;;;;;;;;25.50;99.90;;;;;;5070636;28;19928;-70
2021/06/20 00:08:05;;;;;;;;;;;25.50;99.90;;;;;;5070573;28;19928;-70
2021/06/20 00:10:33;;;;;;;;;;;25.40;99.90;;;;;;5070508;28;19960;-70
2021/06/20 00:13:00;;;;;;;;;;;25.40;99.90;;;;;;5068100;28;19959;-70
2021/06/20 00:15:28;;;;;;;;;;;25.40;99.90;;;;;;5070691;28;19920;-70
2021/06/20 00:17:56;;;;;;;;;;;25.40;99.90;;;;;;5070873;28;19928;-70
2021/06/20 00:20:24;;;;;;;;;;;25.40;99.90;;;;;;5061325;28;19955;-70
2021/06/20 00:22:51;;;;;;;;;;;25.30;99.90;;;;;;5071007;28;19946;-70
2021/06/20 00:25:19;;;;;;;;;;;25.30;99.90;;;;;;5053591;28;19924;-70
2021/06/20 00:27:47;;;;;;;;;;;25.30;99.90;;;;;;5078012;28;19927;-70
2021/06/20 00:30:16;;;;;;;;;;;25.30;99.90;;;;;;5071707;28;19927;-70
2021/06/20 00:32:44;;;;;;;;;;;25.30;99.90;;;;;;5070155;28;19974;-70
2021/06/20 00:35:11;;;;;;;;;;;25.30;99.90;;;;;;5070099;28;19920;-70
2021/06/20 00:37:38;;;;;;;;;;;25.30;99.90;;;;;;5070557;28;19961;-70
2021/06/20 00:40:07;;;;;;;;;;;25.30;99.90;;;;;;5071458;28;19966;-70
2021/06/20 00:42:34;;;;;;;;;;;25.30;99.90;;;;;;5070243;28;20054;-70
2021/06/20 00:45:03;;;;;;;;;;;25.30;99.90;;;;;;5038128;28;19963;-71
2021/06/20 00:47:30;;;;;;;;;;;25.30;99.90;;;;;;5051594;28;20395;-71
2021/06/20 00:49:57;;;;;;;;;;;25.30;99.90;;;;;;5069246;28;19951;-71
2021/06/20 00:52:24;;;;;;;;;;;25.30;99.90;;;;;;5070289;28;19974;-71
2021/06/20 00:54:52;;;;;;;;;;;25.30;99.90;;;;;;5060989;28;19920;-71
2021/06/20 00:57:22;;;;;;;;;;;25.30;99.90;;;;;;5071745;28;19960;-71
2021/06/20 00:59:50;;;;;;;;;;;25.30;99.90;;;;;;5053223;28;20018;-71
2021/06/20 01:02:18;;;;;;;;;;;25.30;99.90;;;;;;5070257;28;20402;-71
2021/06/20 01:04:47;;;;;;;;;;;25.30;99.90;;;;;;5069874;28;20337;-71
2021/06/20 01:07:15;;;;;;;;;;;25.20;99.90;;;;;;5070152;28;19963;-71
2021/06/20 01:09:42;;;;;;;;;;;25.20;99.90;;;;;;5071405;28;20441;-71
2021/06/20 01:12:11;;;;;;;;;;;25.20;99.90;;;;;;5071481;28;20144;-71
2021/06/20 01:14:38;;;;;;;;;;;25.20;99.90;;;;;;5071160;28;19925;-71
2021/06/20 01:17:05;;;;;;;;;;;25.10;99.90;;;;;;5071499;28;20366;-71
2021/06/20 01:19:33;;;;;;;;;;;25.10;99.90;;;;;;5073282;28;19924;-71
2021/06/20 01:22:14;;;;;;;;;;;25.10;99.90;;;;;;5073349;28;20276;-69
2021/06/20 01:24:41;;;;;;;;;;;25.00;99.90;;;;;;5083799;28;19955;-71
2021/06/20 01:27:10;;;;;;;;;;;24.90;99.90;;;;;;5081686;28;19929;-71
2021/06/20 01:29:45;;;;;;;;;;;24.90;99.90;;;;;;5075175;28;20400;-71
2021/06/20 01:32:13;;;;;;;;;;;24.90;99.90;;;;;;5072765;28;19932;-71
2021/06/20 01:34:44;;;;;;;;;;;24.90;99.90;;;;;;5072249;28;19931;-71
2021/06/20 01:37:12;;;;;;;;;;;24.90;99.90;;;;;;5056568;28;19963;-69
2021/06/20 01:39:39;;;;;;;;;;;24.90;99.90;;;;;;5073674;28;19928;-71
2021/06/20 01:42:07;;;;;;;;;;;24.90;99.90;;;;;;5073144;28;19925;-71
2021/06/20 01:44:48;;;;;;;;;;;24.90;99.90;;;;;;5072664;28;19925;-71
2021/06/20 01:47:16;;;;;;;;;;;24.90;99.90;;;;;;5074270;28;19982;-68
2021/06/20 01:49:43;;;;;;;;;;;24.90;99.90;;;;;;5074619;28;19963;-69
2021/06/20 01:52:11;;;;;;;;;;;24.80;99.90;;;;;;5053733;28;20047;-69
2021/06/20 01:54:50;;;;;;;;;;;24.80;99.90;;;;;;5073644;28;19990;-69
2021/06/20 01:57:22;;;;;;;;;;;24.80;99.90;;;;;;5074851;28;19920;-70
2021/06/20 01:59:53;;;;;;;;;;;24.80;99.90;;;;;;5073091;28;19955;-69
2021/06/20 02:02:21;;;;;;;;;;;24.80;99.90;;;;;;5072492;28;20011;-70
2021/06/20 02:04:50;;;;;;;;;;;24.80;99.90;;;;;;5074403;28;20044;-69
2021/06/20 02:07:17;;;;;;;;;;;24.80;99.90;;;;;;5071700;28;19920;-69
2021/06/20 02:09:45;;;;;;;;;;;24.70;99.90;;;;;;5055983;28;19931;-69
2021/06/20 02:12:13;;;;;;;;;;;24.70;99.90;;;;;;5073176;28;19927;-69
2021/06/20 02:14:41;;;;;;;;;;;24.70;99.90;;;;;;5074927;28;19925;-69
2021/06/20 02:17:31;;;;;;;;;;;24.70;99.90;;;;;;5056503;28;19982;-69
2021/06/20 02:20:01;;;;;;;;;;;24.70;99.90;;;;;;5062228;28;19925;-69
2021/06/20 02:22:29;;;;;;;;;;;24.60;99.90;;;;;;5071938;28;19930;-69
2021/06/20 02:24:57;;;;;;;;;;;24.60;99.90;;;;;;5074219;28;19962;-69
2021/06/20 02:27:24;;;;;;;;;;;24.50;99.90;;;;;;5063430;28;20019;-69
2021/06/20 02:29:53;;;;;;;;;;;24.50;99.90;;;;;;5072741;28;20057;-69
2021/06/20 02:32:21;;;;;;;;;;;24.50;99.90;;;;;;5072760;28;20043;-69
2021/06/20 02:34:49;;;;;;;;;;;24.40;99.90;;;;;;5071844;28;20007;-70
2021/06/20 02:37:16;;;;;;;;;;;24.40;99.90;;;;;;5072648;28;19943;-69
2021/06/20 02:39:44;;;;;;;;;;;24.40;99.90;;;;;;5071458;28;19928;-69
2021/06/20 02:42:11;;;;;;;;;;;24.40;99.90;;;;;;5069373;28;19928;-69
2021/06/20 02:44:38;;;;;;;;;;;24.40;99.90;;;;;;5069905;28;19924;-69
2021/06/20 02:47:06;;;;;;;;;;;24.40;99.90;;;;;;5071980;28;19928;-69
2021/06/20 02:49:35;;;;;;;;;;;24.40;99.90;;;;;;5073478;28;19974;-69
2021/06/20 02:52:03;;;;;;;;;;;24.40;99.90;;;;;;5072132;28;19959;-69
2021/06/20 02:54:30;;;;;;;;;;;24.40;99.90;;;;;;5073542;28;19921;-69
2021/06/20 02:56:58;;;;;;;;;;;24.30;99.90;;;;;;5056269;28;20386;-69
2021/06/20 02:59:26;;;;;;;;;;;24.30;99.90;;;;;;5071142;28;19943;-70
2021/06/20 03:01:53;;;;;;;;;;;24.20;99.90;;;;;;5083865;28;19921;-69
2021/06/20 03:04:20;;;;;;;;;;;24.20;99.90;;;;;;5070408;28;19954;-69
2021/06/20 03:06:48;;;;;;;;;;;24.10;99.90;;;;;;5071338;28;19934;-69
2021/06/20 03:09:16;;;;;;;;;;;24.10;99.90;;;;;;5071635;28;19982;-69
2021/06/20 03:11:43;;;;;;;;;;;24.10;99.90;;;;;;5067892;28;19973;-69
2021/06/20 03:14:13;;;;;;;;;;;24.10;99.90;;;;;;5087909;28;19979;-69
2021/06/20 03:16:41;;;;;;;;;;;24.20;99.90;;;;;;5060198;28;19925;-69
2021/06/20 03:19:08;;;;;;;;;;;24.10;99.90;;;;;;5067873;28;19963;-69
2021/06/20 03:21:36;;;;;;;;;;;24.10;99.90;;;;;;5069048;28;19974;-69
2021/06/20 03:24:03;;;;;;;;;;;24.20;99.90;;;;;;5072419;28;20025;-70
2021/06/20 03:26:31;;;;;;;;;;;24.20;99.90;;;;;;5072596;28;20369;-69
2021/06/20 03:29:00;;;;;;;;;;;24.20;99.90;;;;;;5071729;28;19920;-69
2021/06/20 03:31:27;;;;;;;;;;;24.20;99.90;;;;;;5070612;28;20012;-69
2021/06/20 03:33:57;;;;;;;;;;;24.20;99.90;;;;;;5052745;28;19961;-69
2021/06/20 03:36:25;;;;;;;;;;;24.20;99.90;;;;;;5072357;28;19924;-70
2021/06/20 03:38:53;;;;;;;;;;;24.20;99.90;;;;;;5071762;28;19934;-69
2021/06/20 03:41:20;;;;;;;;;;;24.20;99.90;;;;;;5073216;28;19985;-69
2021/06/20 03:43:47;;;;;;;;;;;24.20;99.90;;;;;;5071021;28;19928;-69
2021/06/20 03:46:14;;;;;;;;;;;24.10;99.90;;;;;;5071702;28;20555;-69
2021/06/20 03:48:42;;;;;;;;;;;24.10;99.90;;;;;;5069151;28;20424;-71
2021/06/20 03:51:09;;;;;;;;;;;24.10;99.90;;;;;;5070494;28;19928;-69
2021/06/20 03:53:36;;;;;;;;;;;24.10;99.90;;;;;;5069718;28;20012;-69
2021/06/20 03:56:04;;;;;;;;;;;24.10;99.90;;;;;;5070588;28;19925;-69
2021/06/20 03:58:31;;;;;;;;;;;24.00;99.90;;;;;;5064930;28;19925;-69
2021/06/20 04:00:58;;;;;;;;;;;24.00;99.90;;;;;;5082068;28;19956;-69
2021/06/20 04:03:25;;;;;;;;;;;24.00;99.90;;;;;;5070327;28;19932;-69
2021/06/20 04:05:52;;;;;;;;;;;23.90;99.90;;;;;;5071701;28;19920;-69
2021/06/20 04:08:20;;;;;;;;;;;23.90;99.90;;;;;;5071960;28;19931;-69
2021/06/20 04:10:47;;;;;;;;;;;24.00;99.90;;;;;;5072108;28;19960;-69
2021/06/20 04:13:14;;;;;;;;;;;24.10;99.90;;;;;;5069049;28;19924;-69
2021/06/20 04:15:42;;;;;;;;;;;24.30;99.90;;;;;;5067640;28;20002;-69
2021/06/20 04:18:09;;;;;;;;;;;24.40;99.90;;;;;;5070386;28;19935;-69
2021/06/20 04:20:37;;;;;;;;;;;24.50;99.90;;;;;;5053784;28;20358;-69
2021/06/20 04:23:04;;;;;;;;;;;24.60;99.90;;;;;;5070410;28;20307;-69
2021/06/20 04:25:31;;;;;;;;;;;24.70;99.90;;;;;;5069594;28;19965;-69
2021/06/20 04:27:58;;;;;;;;;;;24.90;99.90;;;;;;5062002;28;20470;-69
2021/06/20 04:30:26;;;;;;;;;;;25.00;99.90;;;;;;5068440;28;19924;-69
2021/06/20 04:32:53;;;;;;;;;;;25.10;99.90;;;;;;5065388;28;19925;-69
2021/06/20 04:35:21;;;;;;;;;;;25.10;99.90;;;;;;5068029;28;19921;-70
2021/06/20 04:37:50;;;;;;;;;;;25.30;99.90;;;;;;5070493;28;19927;-70
2021/06/20 04:40:20;;;;;;;;;;;25.30;99.90;;;;;;5054123;28;20410;-70
2021/06/20 04:42:55;;;;;;;;;;;25.40;99.90;;;;;;5072352;28;20341;-70
2021/06/20 04:45:22;;;;;;;;;;;25.40;99.90;;;;;;5054011;28;19975;-70
2021/06/20 04:47:49;;;;;;;;;;;25.50;99.90;;;;;;5070504;28;20015;-70
2021/06/20 04:50:16;;;;;;;;;;;25.50;99.90;;;;;;5088135;28;19920;-70
2021/06/20 04:52:44;;;;;;;;;;;25.60;99.90;;;;;;5074323;28;19974;-70
2021/06/20 04:55:12;;;;;;;;;;;25.70;99.90;;;;;;5074810;28;19948;-70
2021/06/20 04:57:40;;;;;;;;;;;25.70;99.90;;;;;;5066291;28;19982;-70
2021/06/20 05:00:08;;;;;;;;;;;25.70;99.90;;;;;;5069726;28;20655;-70
2021/06/20 05:02:35;;;;;;;;;;;25.70;99.90;;;;;;5067510;28;19924;-71
2021/06/20 05:05:04;;;;;;;;;;;25.80;99.90;;;;;;5074669;28;19924;-70
2021/06/20 05:07:32;;;;;;;;;;;25.80;99.90;;;;;;5074815;28;19929;-70
2021/06/20 05:09:59;;;;;;;;;;;25.90;99.90;;;;;;5074751;28;19991;-70
2021/06/20 05:12:27;;;;;;;;;;;26.10;99.90;;;;;;5057814;28;19990;-70
2021/06/20 05:14:54;;;;;;;;;;;26.20;99.90;;;;;;5073887;28;19920;-70
2021/06/20 05:17:21;;;;;;;;;;;26.30;99.90;;;;;;5071242;28;19928;-70
2021/06/20 05:19:49;;;;;;;;;;;26.40;99.90;;;;;;5075325;28;19985;-70
2021/06/20 05:22:17;;;;;;;;;;;26.50;99.90;;;;;;5068149;28;19946;-70
2021/06/20 05:24:44;;;;;;;;;;;26.70;99.90;;;;;;5083731;28;19920;-70
2021/06/20 05:27:12;;;;;;;;;;;26.80;99.90;;;;;;5050787;28;20390;-71
2021/06/20 05:29:39;;;;;;;;;;;26.90;99.90;;;;;;5053754;28;19965;-70
2021/06/20 05:32:07;;;;;;;;;;;27.00;99.90;;;;;;5068679;28;20301;-71
2021/06/20 05:34:34;;;;;;;;;;;27.10;99.90;;;;;;5058227;28;19982;-70
2021/06/20 05:37:01;;;;;;;;;;;27.20;99.90;;;;;;5066197;28;19924;-70
2021/06/20 05:39:29;;;;;;;;;;;27.30;99.90;;;;;;5074803;28;20341;-70
2021/06/20 05:41:56;;;;;;;;;;;27.30;99.90;;;;;;5079027;28;20043;-70
2021/06/20 05:44:23;;;;;;;;;;;27.40;99.90;;;;;;5054522;28;19920;-70
2021/06/20 05:46:50;;;;;;;;;;;27.60;99.90;;;;;;5074642;28;20327;-70
2021/06/20 05:49:18;;;;;;;;;;;27.60;99.90;;;;;;5073698;28;19944;-70
2021/06/20 05:51:45;;;;;;;;;;;27.60;99.90;;;;;;5072765;28;19931;-70
2021/06/20 05:54:12;;;;;;;;;;;27.30;99.90;;;;;;5073217;28;20430;-70
2021/06/20 05:56:39;;;;;;;;;;;27.00;99.90;;;;;;5073203;28;19931;-70
2021/06/20 05:59:07;;;;;;;;;;;26.80;99.90;;;;;;5056366;28;19955;-70
2021/06/20 06:01:35;;;;;;;;;;;26.60;99.90;;;;;;5071716;28;19955;-70
2021/06/20 06:04:03;;;;;;;;;;;26.30;99.90;;;;;;5067777;28;19966;-70
2021/06/20 06:06:31;;;;;;;;;;;26.00;99.90;;;;;;5073009;28;20027;-68
2021/06/20 06:08:58;;;;;;;;;;;25.60;99.90;;;;;;5056287;28;20466;-69
2021/06/20 06:11:25;;;;;;;;;;;25.00;99.90;;;;;;5071405;28;20427;-69
2021/06/20 06:13:52;;;;;;;;;;;24.30;99.90;;;;;;5072142;28;20409;-69
2021/06/20 06:16:20;;;;;;;;;;;23.70;99.90;;;;;;5072797;28;19989;-68
2021/06/20 06:18:47;;;;;;;;;;;23.20;99.90;;;;;;5072264;28;19967;-70
2021/06/20 06:21:14;;;;;;;;;;;23.00;99.90;;;;;;5065668;28;19960;-69
2021/06/20 06:23:41;;;;;;;;;;;22.80;99.90;;;;;;5073610;28;20043;-69
2021/06/20 06:26:08;;;;;;;;;;;22.70;99.90;;;;;;5078962;28;20001;-69
2021/06/20 06:28:36;;;;;;;;;;;22.70;99.90;;;;;;5075989;28;19956;-69
2021/06/20 06:31:03;;;;;;;;;;;22.80;99.90;;;;;;5055975;28;19950;-69
2021/06/20 06:33:31;;;;;;;;;;;22.90;99.90;;;;;;5086471;28;19931;-67
2021/06/20 06:35:58;;;;;;;;;;;23.00;99.90;;;;;;5073924;28;20484;-67
2021/06/20 06:38:26;;;;;;;;;;;23.10;99.90;;;;;;5073546;28;20004;-68
2021/06/20 06:40:53;;;;;;;;;;;23.20;99.90;;;;;;5069127;28;20023;-68
2021/06/20 06:43:20;;;;;;;;;;;23.30;99.90;;;;;;5072887;28;19928;-68
2021/06/20 06:45:48;;;;;;;;;;;23.40;99.90;;;;;;5073227;28;19920;-68
2021/06/20 06:48:16;;;;;;;;;;;23.50;99.90;;;;;;5072096;28;19920;-68
2021/06/20 06:50:44;;;;;;;;;;;23.60;99.90;;;;;;5073145;28;19932;-67
2021/06/20 06:53:12;;;;;;;;;;;23.60;99.90;;;;;;5062440;28;20011;-68
2021/06/20 06:55:39;;;;;;;;;;;23.80;99.90;;;;;;5088768;28;19968;-67
2021/06/20 06:58:06;;;;;;;;;;;23.90;99.90;;;;;;5073236;28;19924;-68
2021/06/20 07:00:34;;;;;;;;;;;24.10;99.90;;;;;;5072950;28;19928;-68
2021/06/20 07:03:01;;;;;;;;;;;24.20;99.90;;;;;;5072042;28;20298;-68
2021/06/20 07:05:29;;;;;;;;;;;24.30;99.90;;;;;;5068691;28;20329;-67
2021/06/20 07:07:56;;;;;;;;;;;24.40;99.90;;;;;;5061004;28;19924;-67
2021/06/20 07:10:23;;;;;;;;;;;24.30;99.90;;;;;;5067930;28;19977;-68
2021/06/20 07:12:50;;;;;;;;;;;24.30;99.90;;;;;;5067840;28;20315;-67
2021/06/20 07:15:18;;;;;;;;;;;24.10;99.90;;;;;;5070010;28;19924;-68
2021/06/20 07:17:46;;;;;;;;;;;24.10;99.90;;;;;;5072494;28;19966;-68
2021/06/20 07:20:16;;;;;;;;;;;24.00;99.90;;;;;;5071565;28;20015;-68
2021/06/20 07:22:45;;;;;;;;;;;24.00;99.90;;;;;;5073140;28;19931;-68
2021/06/20 07:25:14;;;;;;;;;;;23.90;99.90;;;;;;5071560;28;19921;-67
2021/06/20 07:27:41;;;;;;;;;;;23.90;99.90;;;;;;5077191;28;19920;-67
2021/06/20 07:30:10;;;;;;;;;;;23.70;99.90;;;;;;5072264;28;19962;-68
2021/06/20 07:32:38;;;;;;;;;;;23.70;99.90;;;;;;5072747;28;20033;-68
2021/06/20 07:35:06;;;;;;;;;;;23.80;99.90;;;;;;5071397;28;20374;-67
2021/06/20 07:37:34;;;;;;;;;;;23.80;99.90;;;;;;5071308;28;19929;-68
2021/06/20 07:40:03;;;;;;;;;;;23.80;99.90;;;;;;5067702;28;19924;-68
2021/06/20 07:42:30;;;;;;;;;;;23.80;99.90;;;;;;5071655;28;19920;-68
2021/06/20 07:44:57;;;;;;;;;;;23.70;99.90;;;;;;5071187;28;19920;-68
2021/06/20 07:47:24;;;;;;;;;;;23.80;99.90;;;;;;5072308;28;20302;-68
2021/06/20 07:49:52;;;;;;;;;;;24.00;99.90;;;;;;5054634;28;19974;-67
2021/06/20 07:52:20;;;;;;;;;;;24.00;99.90;;;;;;5072198;28;19963;-68
2021/06/20 07:54:50;;;;;;;;;;;23.80;99.90;;;;;;5061449;28;20377;-68
2021/06/20 07:57:18;;;;;;;;;;;23.80;99.90;;;;;;5072475;28;19920;-68
2021/06/20 07:59:46;;;;;;;;;;;23.80;99.90;;;;;;5072288;28;19924;-68
2021/06/20 08:02:14;;;;;;;;;;;23.70;99.90;;;;;;5071206;28;19924;-68
2021/06/20 08:04:42;;;;;;;;;;;23.70;99.90;;;;;;5072099;28;19986;-68
2021/06/20 08:07:11;;;;;;;;;;;23.80;99.90;;;;;;5069588;28;19928;-67
2021/06/20 08:09:38;;;;;;;;;;;23.90;99.90;;;;;;5071828;28;19920;-69
2021/06/20 08:12:06;;;;;;;;;;;24.20;99.90;;;;;;5070621;28;19931;-68
2021/06/20 08:14:33;;;;;;;;;;;24.50;99.90;;;;;;5066055;28;19928;-67
2021/06/20 08:17:01;;;;;;;;;;;24.50;99.90;;;;;;5071469;28;19960;-67
2021/06/20 08:19:28;;;;;;;;;;;24.60;99.90;;;;;;5070530;28;19931;-67
2021/06/20 08:21:55;;;;;;;;;;;24.70;99.90;;;;;;5070177;28;19959;-67
2021/06/20 08:24:23;;;;;;;;;;;24.70;99.90;;;;;;5071173;28;19920;-68
2021/06/20 08:26:50;;;;;;;;;;;24.70;99.90;;;;;;5076895;28;19924;-67
2021/06/20 08:29:17;;;;;;;;;;;24.50;99.90;;;;;;5071909;28;19924;-67
2021/06/20 08:31:45;;;;;;;;;;;24.60;99.90;;;;;;5071159;28;19966;-67
2021/06/20 08:34:12;;;;;;;;;;;24.50;99.90;;;;;;5052523;28;19928;-67
2021/06/20 08:36:40;;;;;;;;;;;24.60;99.90;;;;;;5085536;28;19921;-67
2021/06/20 08:39:07;;;;;;;;;;;24.70;99.90;;;;;;5071097;28;20426;-68
2021/06/20 08:41:38;;;;;;;;;;;24.80;99.90;;;;;;5070737;28;19963;-67
2021/06/20 08:44:19;;;;;;;;;;;25.00;99.90;;;;;;5071546;28;19950;-67
2021/06/20 08:46:47;;;;;;;;;;;25.20;99.90;;;;;;5071580;28;19924;-68
2021/06/20 08:49:14;;;;;;;;;;;25.90;99.90;;;;;;5071555;28;19931;-68
2021/06/20 08:51:44;;;;;;;;;;;26.40;99.90;;;;;;5072311;28;19974;-69
2021/06/20 08:54:12;;;;;;;;;;;26.80;99.90;;;;;;5066016;28;19924;-68
2021/06/20 08:56:39;;;;;;;;;;;27.20;99.90;;;;;;5072021;28;19954;-68
2021/06/20 08:59:07;;;;;;;;;;;27.50;99.90;;;;;;5070872;28;19963;-68
2021/06/20 09:01:34;;;;;;;;;;;27.80;99.90;;;;;;5077173;28;20801;-68
2021/06/20 09:04:02;;;;;;;;;;;28.00;99.90;;;;;;5070892;28;20035;-68
2021/06/20 09:06:29;;;;;;;;;;;28.10;99.90;;;;;;5070257;28;19978;-68
2021/06/20 09:08:57;;;;;;;;;;;28.00;99.90;;;;;;5071066;28;20011;-69
2021/06/20 09:11:24;;;;;;;;;;;28.00;99.90;;;;;;5071593;28;20350;-69
2021/06/20 09:14:00;;;;;;;;;;;27.90;99.90;;;;;;5071057;28;20404;-69
2021/06/20 09:16:27;;;;;;;;;;;27.70;99.90;;;;;;5071606;28;19942;-68
2021/06/20 09:18:54;;;;;;;;;;;27.40;99.90;;;;;;5071106;28;19924;-68
2021/06/20 09:21:24;;;;;;;;;;;27.20;99.90;;;;;;5071467;28;19920;-69
2021/06/20 09:23:56;;;;;;;;;;;27.20;99.90;;;;;;5071221;28;19966;-68
2021/06/20 09:26:33;;;;;;;;;;;27.20;99.90;;;;;;5075894;28;19997;-69
2021/06/20 09:29:00;;;;;;;;;;;27.20;99.90;;;;;;5060027;28;19976;-69
2021/06/20 09:31:42;;;;;;;;;;;27.00;99.90;;;;;;5069213;28;19927;-69
2021/06/20 09:34:09;;;;;;;;;;;27.00;99.90;;;;;;5064709;28;19925;-68
2021/06/20 09:36:36;;;;;;;;;;;27.00;99.90;;;;;;5067712;28;19920;-68
2021/06/20 09:39:04;;;;;;;;;;;26.90;99.90;;;;;;5073340;28;19960;-68
2021/06/20 09:41:31;;;;;;;;;;;26.90;99.90;;;;;;5075041;28;19931;-69
2021/06/20 09:43:58;;;;;;;;;;;27.00;99.90;;;;;;5074239;28;19977;-69
2021/06/20 09:46:26;;;;;;;;;;;26.80;99.90;;;;;;5074321;28;19986;-67
2021/06/20 09:48:53;;;;;;;;;;;26.90;99.90;;;;;;5074388;28;20379;-67
2021/06/20 09:51:25;;;;;;;;;;;26.90;99.90;;;;;;5074928;28;20431;-68
2021/06/20 09:53:53;;;;;;;;;;;26.90;99.90;;;;;;5072788;28;19970;-67
2021/06/20 09:56:21;;;;;;;;;;;26.70;99.90;;;;;;5074964;28;19921;-69
2021/06/20 09:58:56;;;;;;;;;;;26.80;99.90;;;;;;5072737;28;20374;-68
2021/06/20 10:01:24;;;;;;;;;;;26.70;99.90;;;;;;5074480;28;19920;-68
2021/06/20 10:03:52;;;;;;;;;;;26.70;99.90;;;;;;5074521;28;19924;-68
2021/06/20 10:06:19;;;;;;;;;;;26.50;99.90;;;;;;5081479;28;19946;-67
2021/06/20 10:08:48;;;;;;;;;;;26.40;99.90;;;;;;5073541;28;19966;-67
2021/06/20 10:11:16;;;;;;;;;;;26.30;99.90;;;;;;5073877;28;19928;-68
2021/06/20 10:13:43;;;;;;;;;;;25.90;99.90;;;;;;5074207;28;20027;-68
2021/06/20 10:16:11;;;;;;;;;;;25.80;99.90;;;;;;5074287;28;19920;-68
2021/06/20 10:18:39;;;;;;;;;;;25.50;99.90;;;;;;5072952;28;19974;-67
2021/06/20 10:21:06;;;;;;;;;;;25.40;99.90;;;;;;5073871;28;19963;-68
2021/06/20 10:23:33;;;;;;;;;;;25.30;99.90;;;;;;5071971;28;19920;-67
2021/06/20 10:26:08;;;;;;;;;;;25.10;99.90;;;;;;5059963;28;19927;-67
2021/06/20 10:28:35;;;;;;;;;;;25.00;99.90;;;;;;5074201;28;19924;-67
2021/06/20 10:31:07;;;;;;;;;;;24.90;99.90;;;;;;5074219;28;20405;-67
2021/06/20 10:33:35;;;;;;;;;;;24.80;99.90;;;;;;5071486;28;19936;-67
2021/06/20 10:36:04;;;;;;;;;;;24.80;99.90;;;;;;5074135;28;20023;-67
2021/06/20 10:38:32;;;;;;;;;;;24.90;99.90;;;;;;5073900;28;20417;-67
2021/06/20 10:40:59;;;;;;;;;;;24.90;99.90;;;;;;5073836;28;20019;-67
2021/06/20 10:43:27;;;;;;;;;;;24.90;99.90;;;;;;5072345;28;20014;-67
2021/06/20 10:45:54;;;;;;;;;;;24.80;99.90;;;;;;5072632;28;19934;-68
2021/06/20 10:48:23;;;;;;;;;;;24.70;99.90;;;;;;5073849;28;19931;-67
2021/06/20 10:50:54;;;;;;;;;;;24.80;99.90;;;;;;5073390;28;19947;-67
2021/06/20 10:53:22;;;;;;;;;;;24.80;99.90;;;;;;5066094;28;20019;-67
2021/06/20 10:55:51;;;;;;;;;;;24.70;99.90;;;;;;5073300;28;19978;-68
2021/06/20 10:58:20;;;;;;;;;;;24.70;99.90;;;;;;5065908;28;19981;-67
2021/06/20 11:00:48;;;;;;;;;;;24.70;99.90;;;;;;5071444;28;19960;-67
2021/06/20 11:03:27;;;;;;;;;;;24.70;99.90;;;;;;5072356;28;20342;-67
2021/06/20 11:05:59;;;;;;;;;;;24.90;99.90;;;;;;5071692;28;19935;-67
2021/06/20 11:08:43;;;;;;;;;;;25.00;99.90;;;;;;5073286;28;19920;-67
2021/06/20 11:11:10;;;;;;;;;;;25.20;99.90;;;;;;5065757;28;19929;-68
2021/06/20 11:13:38;;;;;;;;;;;25.50;99.90;;;;;;5071898;28;20021;-68
2021/06/20 11:16:11;;;;;;;;;;;25.60;99.90;;;;;;5073520;28;19924;-69
2021/06/20 11:18:39;;;;;;;;;;;25.90;99.90;;;;;;5071230;28;19932;-68
2021/06/20 11:21:06;;;;;;;;;;;26.10;99.90;;;;;;5071649;28;20355;-68
2021/06/20 11:23:33;;;;;;;;;;;26.30;99.90;;;;;;5072250;28;19920;-69
2021/06/20 11:26:02;;;;;;;;;;;26.20;99.90;;;;;;5076923;28;20341;-69
2021/06/20 11:28:29;;;;;;;;;;;26.30;99.90;;;;;;5071915;28;21167;-69
2021/06/20 11:31:07;;;;;;;;;;;26.40;99.90;;;;;;5071204;28;19920;-69
2021/06/20 11:33:35;;;;;;;;;;;26.50;99.90;;;;;;5069071;28;19924;-69
2021/06/20 11:36:03;;;;;;;;;;;26.40;99.90;;;;;;5071424;28;19966;-69
2021/06/20 11:38:34;;;;;;;;;;;26.40;99.90;;;;;;5079873;28;20366;-68
2021/06/20 11:41:09;;;;;;;;;;;26.30;99.90;;;;;;5070074;28;20014;-68
2021/06/20 11:43:38;;;;;;;;;;;25.90;99.90;;;;;;5072473;28;19930;-67
2021/06/20 11:46:15;;;;;;;;;;;25.70;99.90;;;;;;5072379;28;20349;-68
2021/06/20 11:48:56;;;;;;;;;;;25.60;99.90;;;;;;5070660;28;19932;-69
2021/06/20 11:51:34;;;;;;;;;;;25.50;99.90;;;;;;5072027;28;19990;-68
2021/06/20 11:54:07;;;;;;;;;;;25.40;99.90;;;;;;5072257;28;20293;-68
2021/06/20 11:56:35;;;;;;;;;;;25.30;99.90;;;;;;5064283;28;19956;-68
2021/06/20 11:59:03;;;;;;;;;;;25.20;99.90;;;;;;5070571;28;19966;-68
2021/06/20 12:01:40;;;;;;;;;;;25.30;99.90;;;;;;5077586;28;20003;-68
2021/06/20 12:04:08;;;;;;;;;;;25.30;99.90;;;;;;5072237;28;20386;-68
2021/06/20 12:06:36;;;;;;;;;;;25.30;99.90;;;;;;5068945;28;19931;-68
2021/06/20 12:09:05;;;;;;;;;;;25.20;99.90;;;;;;5065612;28;19924;-69
2021/06/20 12:11:32;;;;;;;;;;;25.20;99.90;;;;;;5071998;28;19920;-68
2021/06/20 12:14:00;;;;;;;;;;;25.20;99.90;;;;;;5071952;28;19920;-68
2021/06/20 12:16:27;;;;;;;;;;;25.30;99.90;;;;;;5072069;28;19921;-68
2021/06/20 12:18:56;;;;;;;;;;;25.30;99.90;;;;;;5071798;28;19929;-68
2021/06/20 12:21:30;;;;;;;;;;;25.40;99.90;;;;;;5072085;28;19920;-68
2021/06/20 12:23:58;;;;;;;;;;;25.40;99.90;;;;;;5072043;28;20705;-68
2021/06/20 12:26:27;;;;;;;;;;;25.30;99.90;;;;;;5077895;28;19923;-68
2021/06/20 12:28:55;;;;;;;;;;;25.40;99.90;;;;;;5071768;28;19960;-68
2021/06/20 12:31:23;;;;;;;;;;;25.60;99.90;;;;;;5072178;28;19943;-68
2021/06/20 12:34:00;;;;;;;;;;;25.70;99.90;;;;;;5068835;28;20003;-68
2021/06/20 12:36:28;;;;;;;;;;;25.80;99.90;;;;;;5071396;28;19924;-68
2021/06/20 12:38:59;;;;;;;;;;;25.80;99.90;;;;;;5070332;28;19924;-68
2021/06/20 12:41:28;;;;;;;;;;;25.90;99.90;;;;;;5071687;28;20036;-68
2021/06/20 12:43:58;;;;;;;;;;;26.10;99.90;;;;;;5071327;28;19977;-69
2021/06/20 12:46:33;;;;;;;;;;;26.10;99.90;;;;;;5062598;28;19950;-68
2021/06/20 12:49:07;;;;;;;;;;;26.10;99.90;;;;;;5070222;28;20019;-69
2021/06/20 12:51:36;;;;;;;;;;;26.40;99.90;;;;;;5064301;28;20349;-68
2021/06/20 12:54:05;;;;;;;;;;;26.70;99.90;;;;;;5045648;28;20517;-68
2021/06/20 12:56:32;;;;;;;;;;;27.00;99.90;;;;;;5071003;28;19924;-69
2021/06/20 12:59:01;;;;;;;;;;;27.20;99.90;;;;;;5071956;28;20373;-68
2021/06/20 13:01:29;;;;;;;;;;;27.40;99.90;;;;;;5071548;28;19935;-67
2021/06/20 13:04:09;;;;;;;;;;;27.60;99.90;;;;;;5069367;28;19951;-67
2021/06/20 13:06:37;;;;;;;;;;;28.00;99.90;;;;;;5070134;28;19950;-67
2021/06/20 13:09:05;;;;;;;;;;;28.60;99.90;;;;;;5069073;28;21525;-67
2021/06/20 13:11:32;;;;;;;;;;;28.80;99.90;;;;;;5072450;28;19920;-67
2021/06/20 13:14:12;;;;;;;;;;;29.20;99.90;;;;;;5074885;28;20337;-68
2021/06/20 13:16:39;;;;;;;;;;;29.20;99.90;;;;;;5075461;28;20042;-68
2021/06/20 13:19:08;;;;;;;;;;;28.90;99.90;;;;;;5075127;28;19942;-68
2021/06/20 13:21:36;;;;;;;;;;;28.90;99.90;;;;;;5074002;28;19975;-68
2021/06/20 13:24:03;;;;;;;;;;;29.00;99.90;;;;;;5074760;28;20008;-68
2021/06/20 13:26:30;;;;;;;;;;;29.20;99.90;;;;;;5080943;28;20420;-68
2021/06/20 13:28:58;;;;;;;;;;;29.30;99.90;;;;;;5074856;28;20015;-68
2021/06/20 13:31:25;;;;;;;;;;;29.60;99.90;;;;;;5074231;28;20358;-68
2021/06/20 13:33:55;;;;;;;;;;;29.40;99.90;;;;;;5073680;28;19920;-68
2021/06/20 13:36:23;;;;;;;;;;;29.30;99.90;;;;;;5073191;28;20019;-67
2021/06/20 13:38:50;;;;;;;;;;;29.40;99.90;;;;;;5068622;28;19948;-67
2021/06/20 13:41:18;;;;;;;;;;;29.20;99.90;;;;;;5065255;28;20339;-67
2021/06/20 13:43:47;;;;;;;;;;;29.30;99.90;;;;;;5071908;28;20331;-68
2021/06/20 13:46:16;;;;;;;;;;;29.30;99.90;;;;;;5069462;28;19927;-68
2021/06/20 13:48:44;;;;;;;;;;;29.40;99.90;;;;;;5074575;28;19920;-67
2021/06/20 13:51:11;;;;;;;;;;;29.30;99.90;;;;;;5074715;28;20003;-68
2021/06/20 13:53:38;;;;;;;;;;;29.30;99.90;;;;;;5074938;28;19927;-68
2021/06/20 13:56:05;;;;;;;;;;;29.50;99.90;;;;;;5074119;28;20516;-68
2021/06/20 13:58:33;;;;;;;;;;;29.70;99.90;;;;;;5073027;28;19974;-67
2021/06/20 14:01:01;;;;;;;;;;;30.10;99.90;;;;;;5074577;28;19920;-67
2021/06/20 14:03:28;;;;;;;;;;;30.40;99.90;;;;;;5073000;28;20400;-67
2021/06/20 14:05:57;;;;;;;;;;;30.50;99.90;;;;;;5073786;28;19920;-68
2021/06/20 14:08:25;;;;;;;;;;;31.20;99.90;;;;;;5072730;28;20440;-67
2021/06/20 14:10:52;;;;;;;;;;;32.00;99.90;;;;;;5070820;28;19920;-67
2021/06/20 14:13:20;;;;;;;;;;;33.00;99.90;;;;;;5070771;28;20027;-68
2021/06/20 14:15:47;;;;;;;;;;;34.10;99.90;;;;;;5074557;28;19925;-68
2021/06/20 14:18:15;;;;;;;;;;;34.70;99.90;;;;;;5071596;28;19920;-68
2021/06/20 14:20:42;;;;;;;;;;;35.40;99.90;;;;;;5074810;28;20008;-68
2021/06/20 14:23:09;;;;;;;;;;;35.70;99.90;;;;;;5067775;28;19920;-69